| time (UTC) | temp C | wind direction | speed KPH | gust KPH | rain 1hr cm | rain 24hr cm | rain mn cm | humidity % | barometer mb |
| 20260906022355 | 24 | 306 | 0.0 | 0.0 | 0.00 | 0.00 | 0.00 | 86 | 1046.4 |
| 20260906021851 | 24 | 306 | 0.0 | 0.0 | 0.00 | 0.00 | 0.00 | 85 | 1046.3 |
| 20260906021350 | 25 | 306 | 0.0 | 0.0 | 0.00 | 0.00 | 0.00 | 83 | 1046.4 |
| 20260906020845 | 25 | 306 | 0.0 | 0.0 | 0.00 | 0.00 | 0.00 | 84 | 1046.4 |
| 20260906020344 | 25 | 306 | 0.0 | 0.0 | 0.00 | 0.00 | 0.00 | 84 | 1046.2 |
| 20260906015839 | 25 | 306 | 0.0 | 0.0 | 0.00 | 0.00 | 0.00 | 82 | 1046.2 |
| 20260906015339 | 25 | 306 | 0.0 | 0.0 | 0.00 | 0.00 | 0.00 | 83 | 1046.1 |
| 20260906014839 | 25 | 306 | 0.0 | 0.0 | 0.00 | 0.00 | 0.00 | 81 | 1046.0 |
| 20260906014333 | 26 | 306 | 0.0 | 0.0 | 0.00 | 0.00 | 0.00 | 80 | 1046.2 |
| 20260906013830 | 26 | 306 | 0.0 | 0.0 | 0.00 | 0.00 | 0.00 | 80 | 1046.4 |
| 20260906013325 | 26 | 306 | 0.0 | 0.0 | 0.00 | 0.00 | 0.00 | 80 | 1046.2 |
| 20260906012820 | 26 | 306 | 0.0 | 0.0 | 0.00 | 0.00 | 0.00 | 81 | 1046.1 |
| 20260906012320 | 26 | 306 | 0.0 | 0.0 | 0.00 | 0.00 | 0.00 | 81 | 1046.1 |
| 20260906011815 | 26 | 306 | 0.0 | 0.0 | 0.00 | 0.00 | 0.00 | 82 | 1046.0 |
| 20260906011315 | 26 | 306 | 0.0 | 0.0 | 0.00 | 0.00 | 0.00 | 82 | 1045.9 |
| 20260906010811 | 26 | 306 | 0.0 | 1.6 | 0.00 | 0.00 | 0.00 | 82 | 1045.7 |
| 20260906010308 | 26 | 306 | 0.0 | 0.0 | 0.00 | 0.00 | 0.00 | 81 | 1045.8 |
| 20260906005802 | 26 | 306 | 0.0 | 1.6 | 0.00 | 0.00 | 0.00 | 81 | 1045.6 |
| 20260906005301 | 26 | 305 | 0.0 | 0.0 | 0.00 | 0.00 | 0.00 | 82 | 1045.4 |
| 20260906004800 | 26 | 305 | 0.0 | 0.0 | 0.00 | 0.00 | 0.00 | 82 | 1045.8 |
| 20260906004255 | 26 | 305 | 0.0 | 0.0 | 0.00 | 0.00 | 0.00 | 81 | 1045.5 |
| 20260906003755 | 27 | 305 | 0.0 | 0.0 | 0.00 | 0.00 | 0.00 | 78 | 1045.5 |
| 20260906003251 | 27 | 305 | 0.0 | 0.0 | 0.00 | 0.00 | 0.00 | 81 | 1045.4 |
| 20260906002747 | 27 | 305 | 0.0 | 0.0 | 0.00 | 0.00 | 0.00 | 81 | 1045.3 |
| 20260906002246 | 27 | 305 | 0.0 | 0.0 | 0.00 | 0.00 | 0.00 | 80 | 1045.4 |
| 20260906001742 | 27 | 305 | 0.0 | 0.0 | 0.00 | 0.00 | 0.00 | 80 | 1045.6 |
| 20260906001237 | 28 | 305 | 0.0 | 0.0 | 0.00 | 0.00 | 0.00 | 79 | 1045.6 |
| 20260906000732 | 28 | 305 | 0.0 | 0.0 | 0.00 | 0.00 | 0.00 | 78 | 1045.8 |
| 20260906000234 | 28 | 305 | 0.0 | 0.0 | 0.00 | 0.00 | 0.00 | 76 | 1045.6 |
| 20260905235727 | 29 | 305 | 0.0 | 0.0 | 0.00 | 0.00 | 0.00 | 75 | 1045.8 |
| 20260905235227 | 29 | 305 | 0.0 | 0.0 | 0.00 | 0.00 | 0.00 | 74 | 1045.8 |
| 20260905234723 | 30 | 305 | 0.0 | 0.0 | 0.00 | 0.00 | 0.00 | 71 | 1046.1 |
| 20260905234218 | 30 | 305 | 0.0 | 0.0 | 0.00 | 0.00 | 0.00 | 70 | 1046.0 |
| 20260905233713 | 30 | 305 | 0.0 | 0.0 | 0.00 | 0.00 | 0.00 | 70 | 1046.0 |
| 20260905233212 | 31 | 305 | 0.0 | 0.0 | 0.00 | 0.00 | 0.00 | 69 | 1046.1 |
| 20260905232707 | 31 | 305 | 0.0 | 0.0 | 0.00 | 0.00 | 0.00 | 66 | 1046.1 |
| 20260905232203 | 32 | 305 | 0.0 | 0.0 | 0.00 | 0.00 | 0.00 | 62 | 1046.0 |
| 20260905231658 | 32 | 305 | 0.0 | 0.0 | 0.00 | 0.00 | 0.00 | 60 | 1046.3 |
| 20260905231154 | 32 | 305 | 0.0 | 0.0 | 0.00 | 0.00 | 0.00 | 60 | 1046.3 |
| 20260905230650 | 32 | 305 | 0.0 | 0.0 | 0.00 | 0.00 | 0.00 | 59 | 1046.2 |
| 20260905230148 | 32 | 305 | 0.0 | 0.0 | 0.00 | 0.00 | 0.00 | 57 | 1046.0 |
| 20260905225647 | 33 | 305 | 0.0 | 0.0 | 0.00 | 0.00 | 0.00 | 54 | 1046.0 |
| 20260905225142 | 34 | 305 | 0.0 | 0.0 | 0.00 | 0.00 | 0.00 | 55 | 1046.1 |
| 20260905224641 | 34 | 305 | 0.0 | 0.0 | 0.00 | 0.00 | 0.00 | 53 | 1046.1 |
| 20260905224136 | 35 | 305 | 0.0 | 0.0 | 0.00 | 0.00 | 0.00 | 50 | 1046.1 |
| 20260905223633 | 35 | 305 | 0.0 | 0.0 | 0.00 | 0.00 | 0.00 | 49 | 1045.9 |
| 20260905223129 | 36 | 305 | 0.0 | 0.0 | 0.00 | 0.00 | 0.00 | 48 | 1046.2 |
| 20260905222625 | 36 | 307 | 0.0 | 0.0 | 0.00 | 0.00 | 0.00 | 46 | 1046.1 |
| 20260905222119 | 36 | 307 | 0.0 | 0.0 | 0.00 | 0.00 | 0.00 | 47 | 1046.1 |
| 20260905221615 | 36 | 307 | 0.0 | 0.0 | 0.00 | 0.00 | 0.00 | 47 | 1046.3 |
| 20260905221112 | 36 | 307 | 0.0 | 1.6 | 0.00 | 0.00 | 0.00 | 47 | 1046.0 |
| 20260905220607 | 37 | 260 | 1.6 | 4.8 | 0.00 | 0.00 | 0.00 | 43 | 1045.9 |
| 20260905220103 | 37 | 73 | 0.0 | 0.0 | 0.00 | 0.00 | 0.00 | 44 | 1046.1 |
| 20260905215602 | 37 | 74 | 0.0 | 0.0 | 0.00 | 0.00 | 0.00 | 45 | 1046.0 |
| 20260905215058 | 37 | 108 | 0.0 | 0.0 | 0.00 | 0.00 | 0.00 | 43 | 1045.8 |
| 20260905214555 | 37 | 110 | 0.0 | 1.6 | 0.00 | 0.00 | 0.00 | 45 | 1045.9 |
| 20260905214054 | 36 | 268 | 0.0 | 1.6 | 0.00 | 0.00 | 0.00 | 45 | 1045.9 |
| 20260905213549 | 37 | 268 | 3.2 | 3.2 | 0.00 | 0.00 | 0.00 | 42 | 1045.8 |
| 20260905213045 | 37 | 293 | 0.0 | 3.2 | 0.00 | 0.00 | 0.00 | 44 | 1045.7 |
| 20260905212545 | 37 | 91 | 0.0 | 0.0 | 0.00 | 0.00 | 0.00 | 44 | 1045.7 |
| 20260905212044 | 36 | 92 | 3.2 | 3.2 | 0.00 | 0.00 | 0.00 | 43 | 1045.8 |
| 20260905211540 | 36 | 269 | 3.2 | 4.8 | 0.00 | 0.00 | 0.00 | 43 | 1045.8 |
| 20260905211036 | 36 | 284 | 3.2 | 4.8 | 0.00 | 0.00 | 0.00 | 43 | 1045.7 |
| 20260905210531 | 36 | 291 | 4.8 | 3.2 | 0.00 | 0.00 | 0.00 | 42 | 1045.9 |
| 20260905210032 | 36 | 286 | 4.8 | 4.8 | 0.00 | 0.00 | 0.00 | 42 | 1046.1 |
| 20260905205531 | 36 | 266 | 3.2 | 6.4 | 0.00 | 0.00 | 0.00 | 44 | 1045.9 |
| 20260905205030 | 36 | 278 | 1.6 | 3.2 | 0.00 | 0.00 | 0.00 | 43 | 1046.0 |
| 20260905204525 | 36 | 309 | 3.2 | 4.8 | 0.00 | 0.00 | 0.00 | 43 | 1046.0 |
| 20260905204020 | 37 | 317 | 3.2 | 4.8 | 0.00 | 0.00 | 0.00 | 41 | 1046.0 |
| 20260905203520 | 37 | 269 | 1.6 | 4.8 | 0.00 | 0.00 | 0.00 | 40 | 1045.9 |
| 20260905203016 | 36 | 301 | 0.0 | 1.6 | 0.00 | 0.00 | 0.00 | 44 | 1046.2 |
| 20260905202511 | 35 | 292 | 0.0 | 0.0 | 0.00 | 0.00 | 0.00 | 46 | 1046.3 |
| 20260905202006 | 35 | 319 | 3.2 | 11.3 | 0.00 | 0.00 | 0.00 | 43 | 1046.3 |
| 20260905201502 | 35 | 185 | 1.6 | 1.6 | 0.00 | 0.00 | 0.00 | 42 | 1046.5 |
| 20260905201001 | 36 | 325 | 6.4 | 6.4 | 0.00 | 0.00 | 0.00 | 41 | 1046.7 |
| 20260905200457 | 35 | 274 | 0.0 | 1.6 | 0.00 | 0.00 | 0.00 | 45 | 1046.6 |
| 20260905195955 | 35 | 259 | 3.2 | 11.3 | 0.00 | 0.00 | 0.00 | 45 | 1046.8 |
| 20260905195450 | 35 | 288 | 3.2 | 6.4 | 0.00 | 0.00 | 0.00 | 44 | 1046.7 |
| 20260905194946 | 35 | 340 | 6.4 | 9.7 | 0.00 | 0.00 | 0.00 | 43 | 1046.6 |
| 20260905194445 | 35 | 326 | 0.0 | 3.2 | 0.00 | 0.00 | 0.00 | 48 | 1046.8 |
| 20260905193940 | 35 | 332 | 3.2 | 3.2 | 0.00 | 0.00 | 0.00 | 43 | 1046.9 |
| 20260905193440 | 35 | 329 | 1.6 | 9.7 | 0.00 | 0.00 | 0.00 | 43 | 1046.7 |
| 20260905192936 | 35 | 327 | 1.6 | 6.4 | 0.00 | 0.00 | 0.00 | 44 | 1046.8 |
| 20260905192431 | 35 | 151 | 1.6 | 1.6 | 0.00 | 0.00 | 0.00 | 42 | 1047.1 |
| 20260905191926 | 35 | 239 | 1.6 | 1.6 | 0.00 | 0.00 | 0.00 | 44 | 1047.1 |
| 20260905191426 | 35 | 328 | 3.2 | 3.2 | 0.00 | 0.00 | 0.00 | 43 | 1047.1 |
| 20260905190925 | 35 | 310 | 1.6 | 3.2 | 0.00 | 0.00 | 0.00 | 45 | 1047.2 |
| 20260905190423 | 35 | 220 | 1.6 | 6.4 | 0.00 | 0.00 | 0.00 | 44 | 1047.3 |
| 20260905185922 | 34 | 290 | 0.0 | 1.6 | 0.00 | 0.00 | 0.00 | 44 | 1047.5 |
| 20260905185417 | 34 | 296 | 4.8 | 9.7 | 0.00 | 0.00 | 0.00 | 41 | 1047.5 |
| 20260905184916 | 33 | 235 | 4.8 | 4.8 | 0.00 | 0.00 | 0.00 | 43 | 1047.3 |
| 20260905184411 | 33 | 190 | 4.8 | 6.4 | 0.00 | 0.00 | 0.00 | 44 | 1047.5 |
| 20260905183909 | 33 | 295 | 6.4 | 9.7 | 0.00 | 0.00 | 0.00 | 49 | 1047.5 |
| 20260905183404 | 34 | 203 | 1.6 | 6.4 | 0.00 | 0.00 | 0.00 | 45 | 1047.6 |
| 20260905182859 | 34 | 12 | 3.2 | 6.4 | 0.00 | 0.00 | 0.00 | 46 | 1047.9 |
| 20260905182358 | 34 | 180 | 1.6 | 4.8 | 0.00 | 0.00 | 0.00 | 44 | 1048.0 |
| 20260905181855 | 33 | 151 | 3.2 | 4.8 | 0.00 | 0.00 | 0.00 | 45 | 1047.8 |
| 20260905181354 | 33 | 138 | 3.2 | 11.3 | 0.00 | 0.00 | 0.00 | 46 | 1047.9 |
| 20260905180853 | 33 | 310 | 8.0 | 9.7 | 0.00 | 0.00 | 0.00 | 47 | 1048.1 |
| 20260905180349 | 33 | 25 | 1.6 | 3.2 | 0.00 | 0.00 | 0.00 | 46 | 1048.0 |
| 20260905175844 | 33 | 259 | 3.2 | 9.7 | 0.00 | 0.00 | 0.00 | 46 | 1048.0 |
| 20260905175343 | 33 | 178 | 1.6 | 6.4 | 0.00 | 0.00 | 0.00 | 47 | 1048.2 |
| 20260905174839 | 33 | 241 | 6.4 | 6.4 | 0.00 | 0.00 | 0.00 | 46 | 1048.1 |
| 20260905174335 | 32 | 143 | 3.2 | 4.8 | 0.00 | 0.00 | 0.00 | 49 | 1048.3 |
| 20260905173830 | 32 | 117 | 4.8 | 9.7 | 0.00 | 0.00 | 0.00 | 47 | 1048.3 |
| 20260905173326 | 33 | 146 | 3.2 | 11.3 | 0.00 | 0.00 | 0.00 | 46 | 1048.3 |
| 20260905172826 | 33 | 120 | 3.2 | 4.8 | 0.00 | 0.00 | 0.00 | 46 | 1048.3 |
| 20260905172324 | 33 | 93 | 1.6 | 4.8 | 0.00 | 0.00 | 0.00 | 47 | 1048.2 |
| 20260905171820 | 33 | 124 | 3.2 | 4.8 | 0.00 | 0.00 | 0.00 | 46 | 1048.4 |
| 20260905171317 | 33 | 285 | 4.8 | 6.4 | 0.00 | 0.00 | 0.00 | 49 | 1048.8 |
| 20260905170813 | 32 | 149 | 1.6 | 1.6 | 0.00 | 0.00 | 0.00 | 48 | 1048.7 |
| 20260905170308 | 32 | 141 | 3.2 | 3.2 | 0.00 | 0.00 | 0.00 | 46 | 1048.7 |
| 20260905165807 | 32 | 155 | 3.2 | 6.4 | 0.00 | 0.00 | 0.00 | 47 | 1048.8 |
| 20260905165306 | 32 | 179 | 3.2 | 4.8 | 0.00 | 0.00 | 0.00 | 48 | 1048.8 |
| 20260905164803 | 32 | 151 | 4.8 | 6.4 | 0.00 | 0.00 | 0.00 | 49 | 1048.8 |
| 20260905164258 | 31 | 110 | 0.0 | 3.2 | 0.00 | 0.00 | 0.00 | 50 | 1048.6 |
| 20260905163754 | 31 | 132 | 4.8 | 6.4 | 0.00 | 0.00 | 0.00 | 49 | 1048.8 |
| 20260905163250 | 31 | 122 | 6.4 | 6.4 | 0.00 | 0.00 | 0.00 | 49 | 1048.6 |
| 20260905162746 | 31 | 125 | 0.0 | 6.4 | 0.00 | 0.00 | 0.00 | 49 | 1048.6 |
| 20260905162245 | 31 | 90 | 3.2 | 9.7 | 0.00 | 0.00 | 0.00 | 51 | 1048.5 |
| 20260905161740 | 31 | 157 | 4.8 | 6.4 | 0.00 | 0.00 | 0.00 | 50 | 1048.6 |
| 20260905161239 | 31 | 192 | 4.8 | 9.7 | 0.00 | 0.00 | 0.00 | 51 | 1048.7 |
| 20260905160737 | 31 | 107 | 3.2 | 6.4 | 0.00 | 0.00 | 0.00 | 51 | 1048.8 |
| 20260905160237 | 31 | 207 | 3.2 | 3.2 | 0.00 | 0.00 | 0.00 | 54 | 1048.9 |
| 20260905155732 | 30 | 106 | 4.8 | 4.8 | 0.00 | 0.00 | 0.00 | 55 | 1048.8 |
| 20260905155231 | 30 | 251 | 3.2 | 9.7 | 0.00 | 0.00 | 0.00 | 55 | 1048.8 |
| 20260905154725 | 30 | 151 | 6.4 | 9.7 | 0.00 | 0.00 | 0.00 | 56 | 1049.0 |
| 20260905154221 | 29 | 87 | 4.8 | 9.7 | 0.00 | 0.00 | 0.00 | 57 | 1049.2 |
| 20260905153716 | 28 | 105 | 4.8 | 6.4 | 0.00 | 0.00 | 0.00 | 59 | 1049.1 |
| 20260905153212 | 30 | 125 | 11.3 | 12.9 | 0.00 | 0.00 | 0.00 | 58 | 1049.4 |
| 20260905152707 | 30 | 190 | 3.2 | 6.4 | 0.00 | 0.00 | 0.00 | 61 | 1049.4 |
| 20260905152201 | 29 | 136 | 3.2 | 4.8 | 0.00 | 0.00 | 0.00 | 59 | 1049.3 |
| 20260905151701 | 30 | 213 | 3.2 | 6.4 | 0.00 | 0.00 | 0.00 | 60 | 1049.4 |
| 20260905151156 | 30 | 141 | 6.4 | 9.7 | 0.00 | 0.00 | 0.00 | 58 | 1049.3 |
| 20260905150652 | 29 | 151 | 1.6 | 4.8 | 0.00 | 0.00 | 0.00 | 60 | 1049.4 |
| 20260905150150 | 29 | 116 | 0.0 | 3.2 | 0.00 | 0.00 | 0.00 | 62 | 1049.3 |
| 20260905145648 | 28 | 164 | 4.8 | 4.8 | 0.00 | 0.00 | 0.00 | 61 | 1049.4 |
| 20260905145143 | 28 | 108 | 3.2 | 3.2 | 0.00 | 0.00 | 0.00 | 64 | 1049.5 |
| 20260905144637 | 28 | 180 | 6.4 | 14.5 | 0.00 | 0.00 | 0.00 | 63 | 1049.3 |
| 20260905144136 | 28 | 140 | 4.8 | 6.4 | 0.00 | 0.00 | 0.00 | 62 | 1049.4 |
| 20260905143631 | 28 | 79 | 3.2 | 4.8 | 0.00 | 0.00 | 0.00 | 62 | 1049.6 |
| 20260905143132 | 28 | 77 | 1.6 | 4.8 | 0.00 | 0.00 | 0.00 | 62 | 1049.6 |
| 20260905142630 | 28 | 87 | 1.6 | 1.6 | 0.00 | 0.00 | 0.00 | 65 | 1049.6 |
| 20260905142130 | 27 | 26 | 1.6 | 3.2 | 0.00 | 0.00 | 0.00 | 66 | 1049.9 |
| 20260905141630 | 27 | 82 | 0.0 | 1.6 | 0.00 | 0.00 | 0.00 | 70 | 1049.9 |
| 20260905141127 | 26 | 82 | 1.6 | 1.6 | 0.00 | 0.00 | 0.00 | 72 | 1049.5 |
| 20260905140622 | 25 | 94 | 3.2 | 3.2 | 0.00 | 0.00 | 0.00 | 71 | 1049.5 |
| 20260905140121 | 25 | 82 | 1.6 | 1.6 | 0.00 | 0.00 | 0.00 | 76 | 1049.6 |
| 20260905135616 | 23 | 86 | 1.6 | 3.2 | 0.00 | 0.00 | 0.00 | 80 | 1049.4 |
| 20260905135111 | 23 | 87 | 1.6 | 1.6 | 0.00 | 0.00 | 0.00 | 82 | 1049.8 |
| 20260905134606 | 23 | 87 | 1.6 | 1.6 | 0.00 | 0.00 | 0.00 | 83 | 1049.8 |
| 20260905134105 | 23 | 84 | 1.6 | 4.8 | 0.00 | 0.00 | 0.00 | 83 | 1049.9 |
| 20260905133601 | 23 | 77 | 1.6 | 3.2 | 0.00 | 0.00 | 0.00 | 84 | 1050.0 |
| 20260905133100 | 22 | 84 | 1.6 | 4.8 | 0.00 | 0.00 | 0.00 | 84 | 1049.9 |
| 20260905132600 | 22 | 83 | 1.6 | 3.2 | 0.00 | 0.00 | 0.00 | 85 | 1050.1 |
| 20260905132055 | 22 | 77 | 1.6 | 3.2 | 0.00 | 0.00 | 0.00 | 86 | 1050.3 |
| 20260905131550 | 22 | 77 | 1.6 | 3.2 | 0.00 | 0.00 | 0.00 | 87 | 1050.2 |
| 20260905131046 | 22 | 86 | 3.2 | 3.2 | 0.00 | 0.00 | 0.00 | 87 | 1050.0 |
| 20260905130544 | 22 | 81 | 1.6 | 3.2 | 0.00 | 0.00 | 0.00 | 88 | 1050.4 |
| 20260905130040 | 22 | 77 | 1.6 | 4.8 | 0.00 | 0.00 | 0.00 | 88 | 1050.1 |
| 20260905125539 | 22 | 357 | 0.0 | 1.6 | 0.00 | 0.00 | 0.00 | 88 | 1050.6 |
| 20260905125035 | 22 | 86 | 1.6 | 1.6 | 0.00 | 0.00 | 0.00 | 88 | 1050.0 |
| 20260905124531 | 22 | 34 | 0.0 | 1.6 | 0.00 | 0.00 | 0.00 | 87 | 1050.2 |
| 20260905124027 | 22 | 19 | 1.6 | 3.2 | 0.00 | 0.00 | 0.00 | 88 | 1050.3 |
| 20260905123523 | 22 | 84 | 0.0 | 1.6 | 0.00 | 0.00 | 0.00 | 89 | 1050.4 |
| 20260905123020 | 22 | 85 | 0.0 | 1.6 | 0.00 | 0.00 | 0.00 | 90 | 1049.6 |
| 20260905122519 | 22 | 86 | 0.0 | 1.6 | 0.00 | 0.00 | 0.00 | 89 | 1049.3 |
| 20260905122014 | 22 | 86 | 3.2 | 3.2 | 0.00 | 0.00 | 0.00 | 88 | 1049.2 |
| 20260905121514 | 22 | 42 | 1.6 | 1.6 | 0.00 | 0.00 | 0.00 | 87 | 1049.5 |
| 20260905121009 | 22 | 41 | 0.0 | 1.6 | 0.00 | 0.00 | 0.00 | 86 | 1049.6 |
| 20260905120508 | 22 | 61 | 1.6 | 1.6 | 0.00 | 0.00 | 0.00 | 87 | 1049.6 |
| 20260905120004 | 22 | 81 | 0.0 | 1.6 | 0.00 | 0.00 | 0.00 | 86 | 1049.3 |
| 20260905115502 | 22 | 63 | 0.0 | 0.0 | 0.00 | 0.00 | 0.00 | 86 | 1049.7 |
| 20260905114958 | 22 | 65 | 0.0 | 1.6 | 0.00 | 0.00 | 0.00 | 85 | 1049.6 |
| 20260905114457 | 22 | 100 | 0.0 | 1.6 | 0.00 | 0.00 | 0.00 | 85 | 1049.8 |
| 20260905113956 | 22 | 93 | 3.2 | 3.2 | 0.00 | 0.00 | 0.00 | 84 | 1049.5 |
| 20260905113452 | 22 | 22 | 0.0 | 3.2 | 0.00 | 0.00 | 0.00 | 84 | 1049.6 |
| 20260905112947 | 22 | 74 | 1.6 | 6.4 | 0.00 | 0.00 | 0.00 | 84 | 1049.0 |
| 20260905112442 | 23 | 74 | 1.6 | 3.2 | 0.00 | 0.00 | 0.00 | 83 | 1048.9 |
| 20260905111938 | 23 | 353 | 1.6 | 3.2 | 0.00 | 0.00 | 0.00 | 82 | 1048.8 |
| 20260905111438 | 23 | 12 | 1.6 | 6.4 | 0.00 | 0.00 | 0.00 | 82 | 1048.7 |
| 20260905110932 | 23 | 30 | 3.2 | 6.4 | 0.00 | 0.00 | 0.00 | 84 | 1048.9 |
| 20260905110431 | 23 | 294 | 6.4 | 9.7 | 0.00 | 0.00 | 0.00 | 91 | 1048.9 |
| 20260905105931 | 23 | 75 | 0.0 | 1.6 | 0.00 | 0.00 | 0.00 | 93 | 1048.5 |
| 20260905105426 | 23 | 68 | 0.0 | 3.2 | 0.00 | 0.00 | 0.00 | 94 | 1048.4 |
| 20260905104926 | 23 | 338 | 0.0 | 0.0 | 0.00 | 0.00 | 0.00 | 94 | 1048.5 |
| 20260905104422 | 23 | 338 | 0.0 | 0.0 | 0.00 | 0.00 | 0.00 | 94 | 1048.2 |
| 20260905103921 | 22 | 338 | 1.6 | 1.6 | 0.00 | 0.00 | 0.00 | 94 | 1048.2 |
| 20260905103417 | 22 | 340 | 1.6 | 3.2 | 0.00 | 0.00 | 0.00 | 94 | 1048.3 |
| 20260905102913 | 22 | 316 | 1.6 | 4.8 | 0.00 | 0.00 | 0.00 | 94 | 1048.0 |
| 20260905102409 | 22 | 337 | 1.6 | 1.6 | 0.00 | 0.00 | 0.00 | 94 | 1048.0 |
| 20260905101909 | 22 | 337 | 0.0 | 0.0 | 0.00 | 0.00 | 0.00 | 94 | 1047.9 |
| 20260905101407 | 22 | 337 | 0.0 | 0.0 | 0.00 | 0.00 | 0.00 | 94 | 1047.8 |
| 20260905100903 | 22 | 337 | 0.0 | 0.0 | 0.00 | 0.00 | 0.00 | 94 | 1047.8 |
| 20260905100359 | 22 | 337 | 0.0 | 0.0 | 0.00 | 0.00 | 0.00 | 94 | 1048.0 |
| 20260905095857 | 22 | 337 | 0.0 | 0.0 | 0.00 | 0.00 | 0.00 | 94 | 1048.1 |
| 20260905095353 | 22 | 337 | 0.0 | 0.0 | 0.00 | 0.00 | 0.00 | 94 | 1047.8 |
| 20260905094853 | 22 | 337 | 0.0 | 0.0 | 0.00 | 0.00 | 0.00 | 93 | 1047.7 |
| 20260905094349 | 22 | 337 | 0.0 | 0.0 | 0.00 | 0.00 | 0.00 | 93 | 1048.0 |
| 20260905093847 | 22 | 337 | 0.0 | 0.0 | 0.00 | 0.00 | 0.00 | 93 | 1047.6 |
| 20260905093343 | 23 | 337 | 0.0 | 0.0 | 0.00 | 0.00 | 0.00 | 92 | 1047.8 |
| 20260905092839 | 23 | 337 | 0.0 | 0.0 | 0.00 | 0.00 | 0.00 | 92 | 1047.8 |
| 20260905092338 | 23 | 337 | 0.0 | 0.0 | 0.00 | 0.00 | 0.00 | 92 | 1047.6 |
| 20260905091834 | 23 | 337 | 0.0 | 0.0 | 0.00 | 0.00 | 0.00 | 91 | 1047.6 |
| 20260905091333 | 23 | 337 | 0.0 | 0.0 | 0.00 | 0.00 | 0.00 | 91 | 1047.6 |
| 20260905090832 | 23 | 337 | 0.0 | 0.0 | 0.00 | 0.00 | 0.00 | 91 | 1047.6 |
| 20260905090328 | 23 | 337 | 0.0 | 0.0 | 0.00 | 0.00 | 0.00 | 90 | 1047.5 |
| 20260905085827 | 23 | 337 | 0.0 | 0.0 | 0.00 | 0.00 | 0.00 | 89 | 1047.9 |
| 20260905085322 | 24 | 337 | 0.0 | 0.0 | 0.00 | 0.00 | 0.00 | 90 | 1047.8 |
| 20260905084818 | 23 | 337 | 0.0 | 0.0 | 0.00 | 0.00 | 0.00 | 90 | 1047.6 |
| 20260905084317 | 23 | 337 | 0.0 | 0.0 | 0.00 | 0.00 | 0.00 | 91 | 1047.7 |
| 20260905083812 | 23 | 337 | 0.0 | 0.0 | 0.00 | 0.00 | 0.00 | 91 | 1047.5 |
| 20260905083308 | 23 | 337 | 0.0 | 0.0 | 0.00 | 0.00 | 0.00 | 91 | 1047.5 |
| 20260905082803 | 23 | 337 | 0.0 | 0.0 | 0.00 | 0.00 | 0.00 | 92 | 1047.3 |
| 20260905082259 | 23 | 337 | 0.0 | 0.0 | 0.00 | 0.00 | 0.00 | 92 | 1047.5 |
| 20260905081759 | 23 | 337 | 0.0 | 0.0 | 0.00 | 0.00 | 0.00 | 93 | 1047.3 |
| 20260905081255 | 23 | 337 | 0.0 | 0.0 | 0.00 | 0.00 | 0.00 | 93 | 1047.5 |
| 20260905080754 | 23 | 337 | 0.0 | 0.0 | 0.00 | 0.00 | 0.00 | 92 | 1047.6 |
| 20260905080254 | 23 | 337 | 0.0 | 0.0 | 0.00 | 0.00 | 0.00 | 92 | 1047.2 |
| 20260905075753 | 23 | 337 | 0.0 | 0.0 | 0.00 | 0.00 | 0.00 | 92 | 1047.6 |
| 20260905075253 | 23 | 337 | 0.0 | 0.0 | 0.00 | 0.00 | 0.00 | 91 | 1047.6 |
| 20260905074752 | 23 | 337 | 0.0 | 0.0 | 0.00 | 0.00 | 0.00 | 91 | 1047.9 |
| 20260905074248 | 23 | 337 | 0.0 | 0.0 | 0.00 | 0.00 | 0.00 | 92 | 1047.6 |
| 20260905073743 | 23 | 337 | 0.0 | 0.0 | 0.00 | 0.00 | 0.00 | 92 | 1047.6 |
| 20260905073238 | 23 | 337 | 0.0 | 0.0 | 0.00 | 0.00 | 0.00 | 92 | 1047.8 |
| 20260905072737 | 23 | 337 | 0.0 | 0.0 | 0.00 | 0.00 | 0.00 | 92 | 1047.6 |
| 20260905072233 | 23 | 337 | 0.0 | 0.0 | 0.00 | 0.00 | 0.00 | 91 | 1048.0 |
| 20260905071730 | 23 | 337 | 0.0 | 0.0 | 0.00 | 0.00 | 0.00 | 91 | 1047.9 |
| 20260905071225 | 23 | 337 | 0.0 | 0.0 | 0.00 | 0.00 | 0.00 | 91 | 1048.0 |
| 20260905070720 | 23 | 337 | 0.0 | 0.0 | 0.00 | 0.00 | 0.00 | 91 | 1047.9 |
| 20260905070216 | 23 | 337 | 0.0 | 0.0 | 0.00 | 0.00 | 0.00 | 89 | 1048.2 |
| 20260905065714 | 23 | 337 | 0.0 | 0.0 | 0.00 | 0.00 | 0.00 | 89 | 1048.1 |
| 20260905065209 | 23 | 337 | 0.0 | 0.0 | 0.00 | 0.00 | 0.00 | 88 | 1048.3 |
| 20260905064704 | 24 | 337 | 0.0 | 0.0 | 0.00 | 0.00 | 0.00 | 87 | 1048.1 |
| 20260905064200 | 24 | 337 | 0.0 | 0.0 | 0.00 | 0.00 | 0.00 | 87 | 1048.2 |
| 20260905063658 | 24 | 337 | 0.0 | 0.0 | 0.00 | 0.00 | 0.00 | 86 | 1048.3 |
| 20260905063155 | 24 | 337 | 0.0 | 0.0 | 0.00 | 0.00 | 0.00 | 87 | 1048.5 |
| 20260905062650 | 24 | 338 | 0.0 | 0.0 | 0.00 | 0.00 | 0.00 | 87 | 1048.4 |
| 20260905062149 | 23 | 310 | 0.0 | 0.0 | 0.00 | 0.00 | 0.00 | 89 | 1048.7 |
| 20260905061644 | 23 | 310 | 0.0 | 0.0 | 0.00 | 0.00 | 0.00 | 90 | 1048.7 |
| 20260905061144 | 23 | 310 | 0.0 | 0.0 | 0.00 | 0.00 | 0.00 | 91 | 1048.4 |
| 20260905060639 | 23 | 310 | 0.0 | 0.0 | 0.00 | 0.00 | 0.00 | 90 | 1048.6 |
| 20260905060136 | 23 | 310 | 0.0 | 0.0 | 0.00 | 0.00 | 0.00 | 90 | 1048.9 |
| 20260905055634 | 23 | 310 | 0.0 | 0.0 | 0.00 | 0.00 | 0.00 | 90 | 1048.7 |
| 20260905055130 | 23 | 310 | 0.0 | 0.0 | 0.00 | 0.00 | 0.00 | 91 | 1048.8 |
| 20260905054625 | 23 | 310 | 0.0 | 0.0 | 0.00 | 0.00 | 0.00 | 91 | 1048.8 |
| 20260905054121 | 23 | 310 | 0.0 | 0.0 | 0.00 | 0.00 | 0.00 | 90 | 1048.7 |
| 20260905053620 | 23 | 310 | 0.0 | 0.0 | 0.00 | 0.00 | 0.00 | 90 | 1048.7 |
| 20260905053116 | 23 | 310 | 0.0 | 0.0 | 0.00 | 0.00 | 0.00 | 89 | 1048.9 |
| 20260905052615 | 23 | 310 | 0.0 | 0.0 | 0.00 | 0.00 | 0.00 | 90 | 1048.8 |
| 20260905052109 | 23 | 310 | 0.0 | 0.0 | 0.00 | 0.00 | 0.00 | 90 | 1049.0 |
| 20260905051605 | 23 | 310 | 0.0 | 1.6 | 0.00 | 0.00 | 0.00 | 90 | 1048.8 |
| 20260905051102 | 23 | 310 | 0.0 | 0.0 | 0.00 | 0.00 | 0.00 | 90 | 1049.0 |
| 20260905050558 | 24 | 310 | 0.0 | 0.0 | 0.00 | 0.00 | 0.00 | 89 | 1048.9 |
| 20260905050055 | 24 | 310 | 0.0 | 0.0 | 0.00 | 0.00 | 0.00 | 89 | 1048.8 |
| 20260905045554 | 24 | 310 | 0.0 | 0.0 | 0.00 | 0.00 | 0.00 | 88 | 1049.1 |
| 20260905045050 | 24 | 310 | 0.0 | 0.0 | 0.00 | 0.00 | 0.00 | 88 | 1049.0 |
| 20260905044549 | 24 | 310 | 0.0 | 0.0 | 0.00 | 0.00 | 0.00 | 88 | 1049.0 |
| 20260905044044 | 24 | 310 | 0.0 | 0.0 | 0.00 | 0.00 | 0.00 | 88 | 1049.1 |
| 20260905043543 | 24 | 310 | 0.0 | 0.0 | 0.00 | 0.00 | 0.00 | 88 | 1049.1 |
| 20260905043039 | 25 | 310 | 0.0 | 0.0 | 0.00 | 0.00 | 0.00 | 87 | 1049.0 |
| 20260905042537 | 25 | 310 | 0.0 | 0.0 | 0.00 | 0.00 | 0.00 | 86 | 1049.2 |
| 20260905042033 | 25 | 310 | 0.0 | 0.0 | 0.00 | 0.00 | 0.00 | 85 | 1048.9 |
| 20260905041528 | 25 | 310 | 0.0 | 0.0 | 0.00 | 0.00 | 0.00 | 85 | 1048.9 |
| 20260905041024 | 25 | 310 | 1.6 | 1.6 | 0.00 | 0.00 | 0.00 | 85 | 1049.0 |
| 20260905040523 | 24 | 310 | 0.0 | 0.0 | 0.00 | 0.00 | 0.00 | 87 | 1048.7 |
| 20260905040022 | 24 | 310 | 0.0 | 0.0 | 0.00 | 0.00 | 0.00 | 89 | 1048.8 |
| 20260905035517 | 24 | 310 | 0.0 | 0.0 | 0.00 | 0.00 | 0.00 | 89 | 1048.9 |
| 20260905035014 | 24 | 310 | 1.6 | 1.6 | 0.00 | 0.00 | 0.00 | 89 | 1049.2 |
| 20260905034509 | 24 | 310 | 0.0 | 0.0 | 0.00 | 0.00 | 0.00 | 89 | 1049.3 |
| 20260905034009 | 24 | 310 | 0.0 | 0.0 | 0.00 | 0.00 | 0.00 | 89 | 1049.3 |
| 20260905033503 | 24 | 310 | 0.0 | 0.0 | 0.00 | 0.00 | 0.00 | 89 | 1049.2 |
| 20260905032958 | 25 | 310 | 0.0 | 0.0 | 0.00 | 0.00 | 0.00 | 88 | 1049.4 |
| 20260905032453 | 25 | 310 | 0.0 | 0.0 | 0.00 | 0.00 | 0.00 | 87 | 1049.2 |
| 20260905031948 | 25 | 310 | 0.0 | 0.0 | 0.00 | 0.00 | 0.00 | 88 | 1049.1 |
| 20260905031444 | 25 | 310 | 0.0 | 0.0 | 0.00 | 0.00 | 0.00 | 88 | 1049.0 |
| 20260905030939 | 25 | 310 | 0.0 | 0.0 | 0.00 | 0.00 | 0.00 | 88 | 1048.9 |
| 20260905030434 | 25 | 310 | 0.0 | 0.0 | 0.00 | 0.00 | 0.00 | 87 | 1048.9 |
| 20260905025933 | 25 | 310 | 0.0 | 0.0 | 0.00 | 0.00 | 0.00 | 87 | 1049.0 |
| 20260905025428 | 25 | 310 | 0.0 | 0.0 | 0.00 | 0.00 | 0.00 | 85 | 1049.0 |
| 20260905024926 | 25 | 310 | 0.0 | 0.0 | 0.00 | 0.00 | 0.00 | 85 | 1049.2 |
| 20260905024425 | 25 | 310 | 0.0 | 0.0 | 0.00 | 0.00 | 0.00 | 85 | 1049.1 |
| 20260905023921 | 25 | 310 | 0.0 | 0.0 | 0.00 | 0.00 | 0.00 | 84 | 1048.6 |
| 20260905023416 | 25 | 310 | 0.0 | 0.0 | 0.00 | 0.00 | 0.00 | 85 | 1048.8 |
| 20260905022915 | 25 | 310 | 0.0 | 0.0 | 0.00 | 0.00 | 0.00 | 86 | 1048.8 |